createdAt,value
2017-11-18T00:01:25.153Z,3.90
2017-11-18T00:03:52.682Z,3.90
2017-11-18T00:06:20.127Z,3.90
2017-11-18T00:08:47.529Z,3.80
2017-11-18T00:11:15.734Z,3.80
2017-11-18T00:13:43.212Z,3.70
2017-11-18T00:16:10.631Z,3.70
2017-11-18T00:18:38.906Z,3.70
2017-11-18T00:21:07.099Z,3.70
2017-11-18T00:23:34.519Z,3.70
2017-11-18T00:26:01.943Z,3.70
2017-11-18T00:28:29.359Z,3.70
2017-11-18T00:30:57.584Z,3.70
2017-11-18T00:33:25.008Z,3.70
2017-11-18T00:35:53.192Z,3.60
2017-11-18T00:38:20.679Z,3.60
2017-11-18T00:40:48.142Z,3.60
2017-11-18T00:43:15.559Z,3.60
2017-11-18T00:45:43.753Z,3.50
2017-11-18T00:48:11.947Z,3.50
2017-11-18T00:50:39.415Z,3.50
2017-11-18T00:53:06.879Z,3.50
2017-11-18T00:55:35.082Z,3.50
2017-11-18T00:58:02.554Z,3.50
2017-11-18T01:00:29.979Z,3.50
2017-11-18T01:02:57.554Z,3.50
2017-11-18T01:05:25.014Z,3.50
2017-11-18T01:07:52.428Z,3.50
2017-11-18T01:10:20.647Z,3.50
2017-11-18T01:12:48.103Z,3.50
2017-11-18T01:15:15.567Z,3.50
2017-11-18T01:17:42.986Z,3.60
2017-11-18T01:20:11.203Z,3.70
2017-11-18T01:22:38.672Z,3.70
2017-11-18T01:25:06.144Z,3.70
2017-11-18T01:27:33.555Z,3.80
2017-11-18T01:30:01.743Z,3.80
2017-11-18T01:32:29.233Z,3.80
2017-11-18T01:34:56.650Z,3.90
2017-11-18T01:37:24.838Z,3.90
2017-11-18T01:39:52.336Z,3.90
2017-11-18T01:42:19.799Z,4.00
2017-11-18T01:44:47.219Z,4.00
2017-11-18T01:47:15.431Z,4.20
2017-11-18T01:49:42.852Z,4.10
2017-11-18T01:52:11.039Z,4.40
2017-11-18T01:54:38.463Z,4.40
2017-11-18T01:57:05.998Z,4.50
2017-11-18T01:59:33.431Z,4.60
2017-11-18T02:02:00.916Z,4.70
2017-11-18T02:04:28.384Z,4.80
2017-11-18T02:06:55.831Z,4.90
2017-11-18T02:09:23.250Z,5.00
2017-11-18T02:11:51.448Z,5.10
2017-11-18T02:14:18.942Z,5.10
2017-11-18T02:16:46.363Z,5.20
2017-11-18T02:19:14.547Z,5.30
2017-11-18T02:21:42.032Z,5.20
2017-11-18T02:24:09.459Z,5.30
2017-11-18T02:26:37.643Z,5.30
2017-11-18T02:29:05.132Z,5.30
2017-11-18T02:31:32.597Z,5.40
2017-11-18T02:34:00.056Z,5.40
2017-11-18T02:36:27.491Z,5.40
2017-11-18T02:38:55.687Z,5.40
2017-11-18T02:41:23.106Z,5.40
2017-11-18T02:43:50.528Z,5.40
2017-11-18T02:46:17.951Z,5.40
2017-11-18T02:48:45.371Z,5.40
2017-11-18T02:51:12.797Z,5.50
2017-11-18T02:53:40.259Z,5.50
2017-11-18T02:56:07.675Z,5.50
2017-11-18T02:58:35.880Z,5.60
2017-11-18T03:01:03.306Z,5.50
2017-11-18T03:03:30.823Z,5.60
2017-11-18T03:05:58.244Z,5.60
2017-11-18T03:08:26.464Z,5.50
2017-11-18T03:10:53.878Z,5.50
2017-11-18T03:13:22.103Z,5.50
2017-11-18T03:15:49.520Z,5.50
2017-11-18T03:18:17.744Z,5.60
2017-11-18T03:20:45.203Z,5.60
2017-11-18T03:23:12.658Z,5.70
2017-11-18T03:25:40.084Z,5.70
2017-11-18T03:28:08.276Z,5.70
2017-11-18T03:30:35.740Z,5.60
2017-11-18T03:33:03.163Z,5.70
2017-11-18T03:35:30.584Z,5.70
2017-11-18T03:37:58.056Z,5.70
2017-11-18T03:40:25.499Z,5.60
2017-11-18T03:42:52.924Z,5.60
2017-11-18T03:45:21.138Z,5.60
2017-11-18T03:47:48.577Z,5.60
2017-11-18T03:50:16.068Z,5.70
2017-11-18T03:52:43.523Z,5.60
2017-11-18T03:55:10.942Z,5.70
2017-11-18T03:57:39.140Z,5.80
2017-11-18T04:00:06.555Z,5.70
2017-11-18T04:02:34.088Z,5.70
2017-11-18T04:05:01.511Z,5.70
2017-11-18T04:07:29.732Z,5.80
2017-11-18T04:09:57.196Z,5.80
2017-11-18T04:12:24.644Z,5.70
2017-11-18T04:14:52.071Z,5.70
2017-11-18T04:17:20.247Z,5.70
2017-11-18T04:19:48.435Z,5.70
2017-11-18T04:22:15.860Z,5.70
2017-11-18T04:24:43.287Z,5.70
2017-11-18T04:27:10.699Z,5.70
2017-11-18T04:29:38.932Z,5.70
2017-11-18T04:32:06.341Z,5.70
2017-11-18T04:34:34.533Z,5.70
2017-11-18T04:37:02.019Z,5.70
2017-11-18T04:39:29.575Z,5.70
2017-11-18T04:41:57.052Z,5.70
2017-11-18T04:44:24.515Z,5.70
2017-11-18T04:46:51.923Z,5.70
2017-11-18T04:49:20.147Z,5.60
2017-11-18T04:51:47.559Z,5.60
2017-11-18T04:54:15.783Z,5.60
2017-11-18T04:56:43.203Z,5.60
2017-11-18T04:59:11.399Z,5.70
2017-11-18T05:01:38.887Z,5.70
2017-11-18T05:04:06.311Z,5.70
2017-11-18T05:06:34.499Z,5.70
2017-11-18T05:09:01.918Z,5.70
2017-11-18T05:11:29.451Z,5.70
2017-11-18T05:13:56.875Z,5.80
2017-11-18T05:16:25.095Z,5.80
2017-11-18T05:18:52.523Z,5.80
2017-11-18T05:21:19.943Z,5.80
2017-11-18T05:23:47.475Z,5.80
2017-11-18T05:26:14.891Z,5.80
2017-11-18T05:28:43.087Z,5.80
2017-11-18T05:31:10.502Z,5.80
2017-11-18T05:33:37.931Z,5.80
2017-11-18T05:36:05.347Z,5.80
2017-11-18T05:38:33.571Z,5.80
2017-11-18T05:41:00.990Z,5.80
2017-11-18T05:43:29.208Z,5.80
2017-11-18T05:45:56.627Z,5.80
2017-11-18T05:48:24.847Z,5.80
2017-11-18T05:50:52.312Z,5.70
2017-11-18T05:53:19.771Z,5.70
2017-11-18T05:55:47.187Z,5.70
2017-11-18T05:58:15.376Z,5.70
2017-11-18T06:00:43.588Z,5.70
2017-11-18T06:03:11.003Z,5.70
2017-11-18T06:05:39.195Z,5.80
2017-11-18T06:08:06.623Z,5.70
2017-11-18T06:10:34.147Z,5.80
2017-11-18T06:13:01.559Z,5.70
2017-11-18T06:15:29.787Z,5.80
2017-11-18T06:17:57.253Z,5.80
2017-11-18T06:20:24.680Z,5.80
2017-11-18T06:22:52.094Z,5.80
2017-11-18T06:25:19.533Z,5.80
2017-11-18T06:27:46.983Z,5.80
2017-11-18T06:30:14.411Z,5.80
2017-11-18T06:32:42.623Z,5.80
2017-11-18T06:35:10.083Z,5.70
2017-11-18T06:37:37.504Z,5.80
2017-11-18T06:40:05.736Z,5.80
2017-11-18T06:42:33.187Z,5.80
2017-11-18T06:45:00.614Z,5.80
2017-11-18T06:47:28.800Z,5.80
2017-11-18T06:49:56.295Z,5.80
2017-11-18T06:52:23.750Z,5.80
2017-11-18T06:54:51.183Z,5.90
2017-11-18T06:57:18.666Z,5.90
2017-11-18T06:59:46.104Z,5.90
2017-11-18T07:02:13.551Z,5.90
2017-11-18T07:04:41.059Z,5.90
2017-11-18T07:07:08.513Z,6.00
2017-11-18T07:09:35.935Z,6.00
2017-11-18T07:12:04.136Z,5.90
2017-11-18T07:14:32.384Z,5.90
2017-11-18T07:16:59.899Z,6.00
2017-11-18T07:19:27.316Z,5.90
2017-11-18T07:21:55.506Z,5.90
2017-11-18T07:24:23.001Z,5.90
2017-11-18T07:26:50.422Z,6.00
2017-11-18T07:29:18.619Z,6.00
2017-11-18T07:31:46.037Z,6.00
2017-11-18T07:34:13.446Z,6.00
2017-11-18T07:36:40.935Z,5.90
2017-11-18T07:39:08.361Z,5.90
2017-11-18T07:41:35.784Z,5.90
2017-11-18T07:44:03.213Z,5.90
2017-11-18T07:46:30.650Z,5.90
2017-11-18T07:48:58.072Z,5.90
2017-11-18T07:51:25.582Z,5.90
2017-11-18T07:53:53.002Z,6.00
2017-11-18T07:56:21.315Z,6.10
2017-11-18T07:58:48.782Z,6.10
2017-11-18T08:01:16.246Z,6.10
2017-11-18T08:03:43.659Z,6.10
2017-11-18T08:06:11.859Z,6.20
2017-11-18T08:08:39.352Z,6.20
2017-11-18T08:11:06.775Z,6.20
2017-11-18T08:13:35.035Z,6.20
2017-11-18T08:16:02.463Z,6.20
2017-11-18T08:18:29.912Z,6.20
2017-11-18T08:20:57.338Z,6.30
2017-11-18T08:23:25.547Z,6.40
2017-11-18T08:25:52.970Z,6.40
2017-11-18T08:28:21.196Z,6.40
2017-11-18T08:30:48.620Z,6.40
2017-11-18T08:33:16.035Z,6.50
2017-11-18T08:35:43.463Z,6.40
2017-11-18T08:38:10.928Z,6.50
2017-11-18T08:40:38.346Z,6.60
2017-11-18T08:43:06.572Z,6.60
2017-11-18T08:45:34.026Z,6.60
2017-11-18T08:48:01.487Z,6.60
2017-11-18T08:50:28.951Z,6.60
2017-11-18T08:52:56.375Z,6.60
2017-11-18T08:55:24.568Z,6.70
2017-11-18T08:57:51.997Z,6.70
2017-11-18T09:00:19.511Z,6.70
2017-11-18T09:02:46.972Z,6.70
2017-11-18T09:05:14.440Z,6.60
2017-11-18T09:07:41.903Z,6.70
2017-11-18T09:10:09.316Z,6.70
2017-11-18T09:12:37.508Z,6.70
2017-11-18T09:15:05.067Z,6.70
2017-11-18T09:17:33.256Z,6.70
2017-11-18T09:20:00.740Z,6.70
2017-11-18T09:22:28.164Z,6.70
2017-11-18T09:24:56.375Z,6.90
2017-11-18T09:27:23.799Z,6.80
2017-11-18T09:29:51.979Z,7.00
2017-11-18T09:32:20.172Z,7.00
2017-11-18T09:34:47.651Z,7.00
2017-11-18T09:37:15.120Z,7.00
2017-11-18T09:39:42.576Z,7.00
2017-11-18T09:42:10.004Z,7.00
2017-11-18T09:44:38.211Z,7.00
2017-11-18T09:47:05.634Z,7.00
2017-11-18T09:49:33.856Z,7.10
2017-11-18T09:52:01.280Z,7.10
2017-11-18T09:54:29.466Z,7.10
2017-11-18T09:56:56.964Z,7.10
2017-11-18T09:59:24.411Z,7.10
2017-11-18T10:01:51.834Z,7.20
2017-11-18T10:04:20.055Z,7.10
2017-11-18T10:06:47.493Z,7.10
2017-11-18T10:09:16.996Z,7.20
2017-11-18T10:11:45.303Z,7.20
2017-11-18T10:14:12.726Z,7.20
2017-11-18T10:16:40.923Z,7.40
2017-11-18T10:19:08.332Z,7.30
2017-11-18T10:21:35.802Z,7.50
2017-11-18T10:24:03.235Z,7.50
2017-11-18T10:26:30.651Z,7.60
2017-11-18T10:28:58.858Z,7.60
2017-11-18T10:31:26.281Z,7.60
2017-11-18T10:33:54.513Z,7.60
2017-11-18T10:36:21.931Z,7.60
2017-11-18T10:38:50.129Z,7.50
2017-11-18T10:41:17.604Z,7.50
2017-11-18T10:43:45.023Z,7.50
2017-11-18T10:46:13.212Z,7.60
2017-11-18T10:48:40.638Z,7.50
2017-11-18T10:51:08.059Z,7.70
2017-11-18T10:53:35.527Z,7.70
2017-11-18T10:56:02.986Z,7.80
2017-11-18T10:58:30.407Z,7.90
2017-11-18T11:00:58.591Z,8.00
2017-11-18T11:03:26.085Z,8.00
2017-11-18T11:05:53.503Z,8.00
2017-11-18T11:08:21.691Z,8.00
2017-11-18T11:10:49.111Z,8.00
2017-11-18T11:13:16.551Z,8.00
2017-11-18T11:15:44.011Z,8.00
2017-11-18T11:18:11.445Z,8.00
2017-11-18T11:20:38.858Z,7.90
2017-11-18T11:23:06.384Z,7.80
2017-11-18T11:25:33.851Z,7.90
2017-11-18T11:28:01.311Z,8.00
2017-11-18T11:30:28.722Z,8.00
2017-11-18T11:32:56.915Z,8.00
2017-11-18T11:35:25.104Z,8.00
2017-11-18T11:37:52.542Z,8.00
2017-11-18T11:40:20.073Z,8.10
2017-11-18T11:42:47.476Z,8.10
2017-11-18T11:45:15.659Z,8.30
2017-11-18T11:47:43.157Z,8.20
2017-11-18T11:50:10.575Z,8.20
2017-11-18T11:52:38.883Z,8.20
2017-11-18T11:55:06.299Z,8.10
2017-11-18T11:57:33.743Z,8.20
2017-11-18T12:00:02.741Z,8.50
2017-11-18T12:02:30.163Z,8.50
2017-11-18T12:04:57.635Z,8.50
2017-11-18T12:07:25.060Z,8.50
2017-11-18T12:09:53.375Z,8.60
2017-11-18T12:12:20.790Z,8.70
2017-11-18T12:14:49.013Z,8.70
2017-11-18T12:17:16.434Z,8.70
2017-11-18T12:19:44.654Z,8.70
2017-11-18T12:22:12.071Z,8.70
2017-11-18T12:24:40.505Z,8.70
2017-11-18T12:27:07.951Z,8.80
2017-11-18T12:29:35.376Z,8.70
2017-11-18T12:32:03.595Z,8.70
2017-11-18T12:34:31.020Z,8.70
2017-11-18T12:36:59.238Z,8.70
2017-11-18T12:39:26.715Z,8.70
2017-11-18T12:41:54.176Z,8.80
2017-11-18T12:44:21.620Z,8.80
2017-11-18T12:46:49.043Z,8.90
2017-11-18T12:49:17.247Z,8.80
2017-11-18T12:51:44.713Z,8.70
2017-11-18T12:54:12.179Z,8.70
2017-11-18T12:56:39.642Z,8.60
2017-11-18T12:59:07.062Z,8.60
2017-11-18T13:01:35.252Z,8.50
2017-11-18T13:04:02.676Z,8.50
2017-11-18T13:06:31.435Z,8.40
2017-11-18T13:08:58.855Z,8.30
2017-11-18T13:11:27.049Z,8.10
2017-11-18T13:13:54.528Z,8.10
2017-11-18T13:16:22.235Z,8.10
2017-11-18T13:18:49.761Z,8.10
2017-11-18T13:21:17.214Z,8.10
2017-11-18T13:23:44.659Z,8.10
2017-11-18T13:26:12.070Z,8.10
2017-11-18T13:28:39.501Z,8.10
2017-11-18T13:31:06.920Z,8.10
2017-11-18T13:33:35.214Z,8.00
2017-11-18T13:36:02.703Z,8.00
2017-11-18T13:38:30.138Z,8.00
2017-11-18T13:40:58.314Z,7.80
2017-11-18T13:43:25.804Z,7.80
2017-11-18T13:45:53.231Z,7.70
2017-11-18T13:48:20.647Z,7.70
2017-11-18T13:50:48.070Z,7.70
2017-11-18T13:53:15.486Z,7.70
2017-11-18T13:55:43.695Z,7.70
2017-11-18T13:58:11.111Z,7.60
2017-11-18T14:00:38.539Z,7.60
2017-11-18T14:03:05.955Z,7.60
2017-11-18T14:05:34.147Z,7.60
2017-11-18T14:08:02.416Z,7.60
2017-11-18T14:10:30.643Z,7.60
2017-11-18T14:12:58.063Z,7.60
2017-11-18T14:15:26.247Z,7.60
2017-11-18T14:17:53.663Z,7.60
2017-11-18T14:20:21.204Z,7.60
2017-11-18T14:22:48.664Z,7.60
2017-11-18T14:25:16.124Z,7.60
2017-11-18T14:27:43.579Z,7.60
2017-11-18T14:30:11.243Z,7.50
2017-11-18T14:32:38.676Z,7.50
2017-11-18T14:35:06.912Z,7.40
2017-11-18T14:37:34.328Z,7.40
2017-11-18T14:40:01.817Z,7.40
2017-11-18T14:42:29.277Z,7.40
2017-11-18T14:44:56.699Z,7.50
2017-11-18T14:47:24.912Z,7.60
2017-11-18T14:49:52.330Z,7.60
2017-11-18T14:52:20.519Z,7.60
2017-11-18T14:54:47.952Z,7.60
2017-11-18T14:57:15.366Z,7.60
2017-11-18T14:59:43.363Z,7.60
2017-11-18T15:02:11.447Z,7.50
2017-11-18T15:04:38.914Z,7.50
2017-11-18T15:07:07.463Z,7.50
2017-11-18T15:09:35.824Z,7.50
2017-11-18T15:12:03.279Z,7.50
2017-11-18T15:14:46.615Z,7.50
2017-11-18T15:20:33.844Z,7.50
2017-11-18T15:23:19.890Z,7.50
2017-11-18T15:25:53.764Z,7.50
2017-11-18T15:28:27.007Z,7.50
2017-11-18T15:31:00.076Z,7.50
2017-11-18T15:33:28.951Z,7.20
2017-11-18T15:36:00.175Z,7.20
2017-11-18T15:38:47.424Z,6.80
2017-11-18T15:41:14.852Z,6.50
2017-11-18T15:44:00.120Z,6.10
2017-11-18T15:46:29.128Z,5.80
2017-11-18T15:49:02.208Z,5.60
2017-11-18T15:51:34.076Z,5.50
2017-11-18T15:54:07.063Z,5.40
2017-11-18T15:56:40.319Z,5.40
2017-11-18T15:59:07.736Z,5.40
2017-11-18T16:01:40.884Z,5.40
2017-11-18T16:04:08.308Z,5.40
2017-11-18T16:06:52.188Z,5.50
2017-11-18T16:09:19.603Z,5.50
2017-11-18T16:11:47.791Z,5.50
2017-11-18T16:14:15.275Z,5.50
2017-11-18T16:16:42.738Z,5.50
2017-11-18T16:19:10.211Z,5.50
2017-11-18T16:21:37.628Z,5.50
2017-11-18T16:24:05.811Z,5.70
2017-11-18T16:26:33.300Z,5.60
2017-11-18T16:29:00.727Z,5.70
2017-11-18T16:31:28.951Z,5.70
2017-11-18T16:33:56.356Z,5.60
2017-11-18T16:36:24.573Z,5.80
2017-11-18T16:38:51.990Z,5.70
2017-11-18T16:41:20.217Z,5.80
2017-11-18T16:43:47.695Z,5.80
2017-11-18T16:46:15.119Z,5.80
2017-11-18T16:48:42.541Z,5.90
2017-11-18T16:51:09.969Z,5.90
2017-11-18T16:53:37.378Z,5.90
2017-11-18T16:56:05.595Z,6.00
2017-11-18T16:58:33.079Z,5.90
2017-11-18T17:01:00.490Z,5.90
2017-11-18T17:03:27.948Z,6.00
2017-11-18T17:05:56.132Z,6.00
2017-11-18T17:08:23.632Z,6.00
2017-11-18T17:10:51.046Z,6.00
2017-11-18T17:13:18.475Z,6.00
2017-11-18T17:15:45.908Z,6.00
2017-11-18T17:18:13.327Z,6.10
2017-11-18T17:20:41.516Z,6.10
2017-11-18T17:23:08.940Z,6.10
2017-11-18T17:25:36.462Z,6.10
2017-11-18T17:28:03.946Z,6.10
2017-11-18T17:30:31.391Z,6.10
2017-11-18T17:32:58.852Z,6.10
2017-11-18T17:35:26.325Z,6.10
2017-11-18T17:37:53.794Z,6.10
2017-11-18T17:40:21.252Z,6.20
2017-11-18T17:42:48.702Z,6.10
2017-11-18T17:45:16.198Z,6.20
2017-11-18T17:47:43.723Z,6.10
2017-11-18T17:50:11.144Z,6.20
2017-11-18T17:52:38.587Z,6.20
2017-11-18T17:55:05.999Z,6.20
2017-11-18T17:57:33.433Z,6.20
2017-11-18T18:00:00.932Z,6.20
2017-11-18T18:02:28.358Z,6.20
2017-11-18T18:04:55.851Z,6.20
2017-11-18T18:07:23.334Z,6.20
2017-11-18T18:09:50.791Z,6.20
2017-11-18T18:12:18.630Z,6.20
2017-11-18T18:14:46.304Z,6.20
2017-11-18T18:17:13.745Z,6.20
2017-11-18T18:19:41.163Z,6.20
2017-11-18T18:22:08.592Z,6.20
2017-11-18T18:24:36.013Z,6.20
2017-11-18T18:27:04.228Z,6.20
2017-11-18T18:29:31.652Z,6.20
2017-11-18T18:31:59.839Z,6.10
2017-11-18T18:34:27.401Z,6.10
2017-11-18T18:36:54.914Z,6.20
2017-11-18T18:39:22.327Z,6.10
2017-11-18T18:41:49.758Z,6.20
2017-11-18T18:44:17.946Z,6.20
2017-11-18T18:46:46.191Z,6.20
2017-11-18T18:49:13.633Z,6.20
2017-11-18T18:51:41.091Z,6.20
2017-11-18T18:54:08.512Z,6.20
2017-11-18T18:56:36.700Z,6.20
2017-11-18T18:59:04.128Z,6.20
2017-11-18T19:01:32.391Z,6.20
2017-11-18T19:03:59.852Z,6.20
2017-11-18T19:06:27.272Z,6.20
2017-11-18T19:08:54.695Z,6.20
2017-11-18T19:11:22.269Z,6.20
2017-11-18T19:13:49.775Z,6.20
2017-11-18T19:16:17.200Z,6.30
2017-11-18T19:18:45.403Z,6.30
2017-11-18T19:21:12.875Z,6.30
2017-11-18T19:23:40.321Z,6.30
2017-11-18T19:26:07.808Z,6.30
2017-11-18T19:28:35.227Z,6.20
2017-11-18T19:31:03.435Z,6.20
2017-11-18T19:33:30.859Z,6.20
2017-11-18T19:35:59.092Z,6.20
2017-11-18T19:38:26.520Z,6.20
2017-11-18T19:40:53.952Z,6.30
2017-11-18T19:43:21.380Z,6.30
2017-11-18T19:45:48.796Z,6.20
2017-11-18T19:48:16.391Z,6.20
2017-11-18T19:50:43.825Z,6.10
2017-11-18T19:53:11.331Z,6.10
2017-11-18T19:55:38.770Z,6.10
2017-11-18T19:58:06.254Z,6.10
2017-11-18T20:00:33.694Z,6.10
2017-11-18T20:03:01.105Z,6.10
2017-11-18T20:05:29.337Z,6.10
2017-11-18T20:07:56.769Z,6.10
2017-11-18T20:10:24.247Z,6.10
2017-11-18T20:12:51.676Z,6.10
2017-11-18T20:15:19.863Z,6.10
2017-11-18T20:17:47.298Z,6.10
2017-11-18T20:20:14.828Z,6.10
2017-11-18T20:22:42.246Z,6.10
2017-11-18T20:25:09.669Z,6.10
2017-11-18T20:27:37.191Z,6.10
2017-11-18T20:30:04.660Z,6.10
2017-11-18T20:32:32.090Z,6.20
2017-11-18T20:34:59.507Z,6.10
2017-11-18T20:37:26.931Z,6.10
2017-11-18T20:39:54.407Z,6.10
2017-11-18T20:42:21.881Z,6.10
2017-11-18T20:44:49.303Z,6.10
2017-11-18T20:47:16.804Z,6.10
2017-11-18T20:49:44.235Z,6.20
2017-11-18T20:52:11.712Z,6.20
2017-11-18T20:54:39.135Z,6.10
2017-11-18T20:57:07.331Z,6.10
2017-11-18T20:59:34.763Z,6.10
2017-11-18T21:02:02.971Z,6.20
2017-11-18T21:04:30.435Z,6.10
2017-11-18T21:06:57.904Z,6.10
2017-11-18T21:09:25.332Z,6.10
2017-11-18T21:11:53.519Z,6.10
2017-11-18T21:14:21.013Z,6.10
2017-11-18T21:16:48.478Z,6.10
2017-11-18T21:19:15.909Z,6.10
2017-11-18T21:21:43.319Z,6.10
2017-11-18T21:24:10.747Z,6.10
2017-11-18T21:26:38.355Z,6.10
2017-11-18T21:29:05.775Z,6.10
2017-11-18T21:31:33.244Z,6.00
2017-11-18T21:34:00.663Z,5.90
2017-11-18T21:36:28.851Z,6.00
2017-11-18T21:38:56.360Z,5.90
2017-11-18T21:41:23.795Z,5.90
2017-11-18T21:43:51.287Z,6.00
2017-11-18T21:46:18.739Z,6.00
2017-11-18T21:48:46.187Z,6.10
2017-11-18T21:51:13.602Z,6.10
2017-11-18T21:53:41.819Z,6.10
2017-11-18T21:56:09.304Z,6.10
2017-11-18T21:58:36.727Z,6.10
2017-11-18T22:01:04.145Z,6.20
2017-11-18T22:03:31.687Z,6.20
2017-11-18T22:05:59.123Z,6.20
2017-11-18T22:08:26.556Z,6.20
2017-11-18T22:10:54.766Z,6.20
2017-11-18T22:13:22.227Z,6.20
2017-11-18T22:15:49.707Z,6.20
2017-11-18T22:18:17.139Z,6.10
2017-11-18T22:20:44.560Z,6.10
2017-11-18T22:23:12.028Z,6.10
2017-11-18T22:25:40.224Z,6.10
2017-11-18T22:28:07.717Z,6.10
2017-11-18T22:30:35.141Z,6.20
2017-11-18T22:33:03.360Z,6.20
2017-11-18T22:35:30.829Z,6.20
2017-11-18T22:37:58.240Z,6.20
2017-11-18T22:40:26.446Z,6.20
2017-11-18T22:42:53.959Z,6.10
2017-11-18T22:45:21.475Z,6.20
2017-11-18T22:47:48.934Z,6.20
2017-11-18T22:50:16.359Z,6.20
2017-11-18T22:52:44.548Z,6.20
2017-11-18T22:55:11.967Z,6.20
2017-11-18T22:57:39.387Z,6.20
2017-11-18T23:00:06.811Z,6.20
2017-11-18T23:02:35.003Z,6.20
2017-11-18T23:05:03.232Z,6.20
2017-11-18T23:07:30.636Z,6.10
2017-11-18T23:09:58.826Z,6.20
2017-11-18T23:12:26.242Z,6.20
2017-11-18T23:14:53.676Z,6.20
2017-11-18T23:17:21.139Z,6.20
2017-11-18T23:19:48.720Z,6.20
2017-11-18T23:22:16.183Z,6.20
2017-11-18T23:24:44.407Z,6.20
2017-11-18T23:27:11.975Z,6.20
2017-11-18T23:29:39.673Z,6.20
2017-11-18T23:32:07.092Z,6.20
2017-11-18T23:34:34.524Z,6.20
2017-11-18T23:37:01.936Z,6.20
2017-11-18T23:39:30.226Z,6.20
2017-11-18T23:41:57.692Z,6.20
2017-11-18T23:44:25.152Z,6.20
2017-11-18T23:46:52.576Z,6.10
2017-11-18T23:49:20.763Z,6.10
2017-11-18T23:51:48.178Z,6.10
2017-11-18T23:54:15.715Z,6.10
2017-11-18T23:56:43.172Z,6.10
2017-11-18T23:59:10.640Z,6.10
